sensor_id;sensor_type;location;lat;lon;timestamp;pressure;altitude;pressure_sealevel;temperature;humidity
54144;BME280;40050;47.324;18.792;2023-06-10T00:01:00;999.32;;;20.24;72.87
54144;BME280;40050;47.324;18.792;2023-06-10T00:03:01;999.26;;;20.22;72.83
54144;BME280;40050;47.324;18.792;2023-06-10T00:05:02;999.29;;;20.21;72.78
54144;BME280;40050;47.324;18.792;2023-06-10T00:07:03;999.26;;;20.17;72.74
54144;BME280;40050;47.324;18.792;2023-06-10T00:09:05;999.20;;;20.14;72.73
54144;BME280;40050;47.324;18.792;2023-06-10T00:11:06;999.28;;;20.14;72.68
54144;BME280;40050;47.324;18.792;2023-06-10T00:13:09;999.22;;;20.11;72.64
54144;BME280;40050;47.324;18.792;2023-06-10T00:15:10;999.28;;;20.11;72.54
54144;BME280;40050;47.324;18.792;2023-06-10T00:17:11;999.30;;;20.10;72.53
54144;BME280;40050;47.324;18.792;2023-06-10T00:19:12;999.30;;;20.08;72.57
54144;BME280;40050;47.324;18.792;2023-06-10T00:21:13;999.26;;;20.03;72.61
54144;BME280;40050;47.324;18.792;2023-06-10T00:23:14;999.30;;;20.03;72.56
54144;BME280;40050;47.324;18.792;2023-06-10T00:25:15;999.30;;;20.00;72.53
54144;BME280;40050;47.324;18.792;2023-06-10T00:27:16;999.34;;;20.00;72.50
54144;BME280;40050;47.324;18.792;2023-06-10T00:29:17;999.36;;;19.99;72.49
54144;BME280;40050;47.324;18.792;2023-06-10T00:31:18;999.43;;;19.99;72.50
54144;BME280;40050;47.324;18.792;2023-06-10T00:33:19;999.38;;;19.96;72.56
54144;BME280;40050;47.324;18.792;2023-06-10T00:35:20;999.38;;;19.94;72.56
54144;BME280;40050;47.324;18.792;2023-06-10T00:37:20;999.34;;;19.89;72.53
54144;BME280;40050;47.324;18.792;2023-06-10T00:39:21;999.39;;;19.90;72.53
54144;BME280;40050;47.324;18.792;2023-06-10T00:41:22;999.38;;;19.89;72.61
54144;BME280;40050;47.324;18.792;2023-06-10T00:43:23;999.38;;;19.87;72.67
54144;BME280;40050;47.324;18.792;2023-06-10T00:45:24;999.35;;;19.85;72.72
54144;BME280;40050;47.324;18.792;2023-06-10T00:47:25;999.32;;;19.84;72.76
54144;BME280;40050;47.324;18.792;2023-06-10T00:49:26;999.33;;;19.82;72.78
54144;BME280;40050;47.324;18.792;2023-06-10T00:51:28;999.30;;;19.81;72.72
54144;BME280;40050;47.324;18.792;2023-06-10T00:53:29;999.35;;;19.80;72.72
54144;BME280;40050;47.324;18.792;2023-06-10T00:55:30;999.34;;;19.78;72.80
54144;BME280;40050;47.324;18.792;2023-06-10T00:57:31;999.36;;;19.77;72.90
54144;BME280;40050;47.324;18.792;2023-06-10T00:59:32;999.34;;;19.72;72.85
54144;BME280;40050;47.324;18.792;2023-06-10T01:01:33;999.39;;;19.73;72.76
54144;BME280;40050;47.324;18.792;2023-06-10T01:03:34;999.36;;;19.70;72.80
54144;BME280;40050;47.324;18.792;2023-06-10T01:05:35;999.34;;;19.68;72.91
54144;BME280;40050;47.324;18.792;2023-06-10T01:07:40;999.36;;;19.64;72.85
54144;BME280;40050;47.324;18.792;2023-06-10T01:12:58;999.35;;;19.69;72.36
54144;BME280;40050;47.324;18.792;2023-06-10T01:14:20;999.34;;;19.65;72.24
54144;BME280;40050;47.324;18.792;2023-06-10T01:16:21;999.28;;;19.63;72.29
54144;BME280;40050;47.324;18.792;2023-06-10T01:18:22;999.27;;;19.58;72.43
54144;BME280;40050;47.324;18.792;2023-06-10T01:20:23;999.29;;;19.56;72.48
54144;BME280;40050;47.324;18.792;2023-06-10T01:22:25;999.30;;;19.52;72.57
54144;BME280;40050;47.324;18.792;2023-06-10T01:24:26;999.27;;;19.50;72.74
54144;BME280;40050;47.324;18.792;2023-06-10T01:26:31;999.33;;;19.50;72.86
54144;BME280;40050;47.324;18.792;2023-06-10T01:28:47;999.24;;;19.46;72.89
54144;BME280;40050;47.324;18.792;2023-06-10T01:30:55;999.30;;;19.44;72.93
54144;BME280;40050;47.324;18.792;2023-06-10T01:32:59;999.27;;;19.46;72.95
54144;BME280;40050;47.324;18.792;2023-06-10T01:35:02;999.25;;;19.43;72.82
54144;BME280;40050;47.324;18.792;2023-06-10T01:37:03;999.20;;;19.41;72.79
54144;BME280;40050;47.324;18.792;2023-06-10T01:39:04;999.21;;;19.40;72.79
54144;BME280;40050;47.324;18.792;2023-06-10T01:41:05;998.92;;;19.23;72.83
54144;BME280;40050;47.324;18.792;2023-06-10T01:43:06;999.17;;;19.39;72.92
54144;BME280;40050;47.324;18.792;2023-06-10T01:45:07;999.23;;;19.39;73.06
54144;BME280;40050;47.324;18.792;2023-06-10T01:47:08;999.23;;;19.37;73.10
54144;BME280;40050;47.324;18.792;2023-06-10T01:49:09;999.24;;;19.36;73.20
54144;BME280;40050;47.324;18.792;2023-06-10T01:51:10;999.27;;;19.33;73.19
54144;BME280;40050;47.324;18.792;2023-06-10T01:53:11;999.27;;;19.31;73.31
54144;BME280;40050;47.324;18.792;2023-06-10T01:55:12;999.25;;;19.31;73.36
54144;BME280;40050;47.324;18.792;2023-06-10T01:57:13;999.25;;;19.32;73.44
54144;BME280;40050;47.324;18.792;2023-06-10T01:59:14;999.29;;;19.30;73.51
54144;BME280;40050;47.324;18.792;2023-06-10T02:01:15;999.31;;;19.29;73.58
54144;BME280;40050;47.324;18.792;2023-06-10T02:03:16;999.24;;;19.27;73.50
54144;BME280;40050;47.324;18.792;2023-06-10T02:05:17;999.21;;;19.24;73.49
54144;BME280;40050;47.324;18.792;2023-06-10T02:07:18;999.26;;;19.24;73.57
54144;BME280;40050;47.324;18.792;2023-06-10T02:09:19;999.26;;;19.24;73.58
54144;BME280;40050;47.324;18.792;2023-06-10T02:11:20;999.23;;;19.23;73.65
54144;BME280;40050;47.324;18.792;2023-06-10T02:13:20;999.29;;;19.24;73.51
54144;BME280;40050;47.324;18.792;2023-06-10T02:15:21;999.27;;;19.18;73.53
54144;BME280;40050;47.324;18.792;2023-06-10T02:17:22;999.35;;;19.17;73.60
54144;BME280;40050;47.324;18.792;2023-06-10T02:19:23;999.36;;;19.16;73.63
54144;BME280;40050;47.324;18.792;2023-06-10T02:21:24;999.35;;;19.16;73.68
54144;BME280;40050;47.324;18.792;2023-06-10T02:23:25;999.36;;;19.15;73.71
54144;BME280;40050;47.324;18.792;2023-06-10T02:25:26;999.32;;;19.15;73.75
54144;BME280;40050;47.324;18.792;2023-06-10T02:27:27;999.32;;;19.13;73.75
54144;BME280;40050;47.324;18.792;2023-06-10T02:29:28;999.23;;;19.03;73.85
54144;BME280;40050;47.324;18.792;2023-06-10T02:31:29;999.36;;;19.11;73.91
54144;BME280;40050;47.324;18.792;2023-06-10T02:33:30;999.36;;;19.11;73.98
54144;BME280;40050;47.324;18.792;2023-06-10T02:35:34;999.36;;;19.11;73.91
54144;BME280;40050;47.324;18.792;2023-06-10T02:37:34;999.36;;;19.09;73.77
54144;BME280;40050;47.324;18.792;2023-06-10T02:39:35;999.32;;;19.08;73.70
54144;BME280;40050;47.324;18.792;2023-06-10T02:41:36;999.35;;;19.04;73.49
54144;BME280;40050;47.324;18.792;2023-06-10T02:43:37;999.33;;;18.98;73.40
54144;BME280;40050;47.324;18.792;2023-06-10T02:45:38;999.38;;;18.98;73.21
54144;BME280;40050;47.324;18.792;2023-06-10T02:47:39;999.37;;;18.94;73.22
54144;BME280;40050;47.324;18.792;2023-06-10T02:49:40;999.36;;;18.94;73.25
54144;BME280;40050;47.324;18.792;2023-06-10T02:51:41;999.14;;;18.78;73.24
54144;BME280;40050;47.324;18.792;2023-06-10T02:53:42;999.34;;;18.88;73.24
54144;BME280;40050;47.324;18.792;2023-06-10T02:55:43;999.38;;;18.88;73.27
54144;BME280;40050;47.324;18.792;2023-06-10T02:57:44;999.36;;;18.86;73.29
54144;BME280;40050;47.324;18.792;2023-06-10T02:59:45;999.37;;;18.84;73.37
54144;BME280;40050;47.324;18.792;2023-06-10T03:01:46;999.35;;;18.84;73.61
54144;BME280;40050;47.324;18.792;2023-06-10T03:03:47;999.33;;;18.84;73.92
54144;BME280;40050;47.324;18.792;2023-06-10T03:05:48;999.33;;;18.82;73.96
54144;BME280;40050;47.324;18.792;2023-06-10T03:07:49;999.37;;;18.81;73.99
54144;BME280;40050;47.324;18.792;2023-06-10T03:09:50;999.38;;;18.83;74.08
54144;BME280;40050;47.324;18.792;2023-06-10T03:11:50;999.40;;;18.83;74.21
54144;BME280;40050;47.324;18.792;2023-06-10T03:13:51;999.39;;;18.84;74.26
54144;BME280;40050;47.324;18.792;2023-06-10T03:15:52;999.40;;;18.83;74.37
54144;BME280;40050;47.324;18.792;2023-06-10T03:17:53;999.39;;;18.83;74.65
54144;BME280;40050;47.324;18.792;2023-06-10T03:19:54;999.44;;;18.86;74.90
54144;BME280;40050;47.324;18.792;2023-06-10T03:22:06;999.45;;;18.87;75.06
54144;BME280;40050;47.324;18.792;2023-06-10T03:24:08;999.47;;;18.87;75.26
54144;BME280;40050;47.324;18.792;2023-06-10T03:26:09;999.45;;;18.88;75.38
54144;BME280;40050;47.324;18.792;2023-06-10T03:28:10;999.43;;;18.88;75.56
54144;BME280;40050;47.324;18.792;2023-06-10T03:30:11;999.45;;;18.90;75.63
54144;BME280;40050;47.324;18.792;2023-06-10T03:32:13;999.45;;;18.93;75.56
54144;BME280;40050;47.324;18.792;2023-06-10T03:34:13;999.47;;;18.96;75.72
54144;BME280;40050;47.324;18.792;2023-06-10T03:36:14;999.44;;;18.96;75.91
54144;BME280;40050;47.324;18.792;2023-06-10T03:38:15;999.48;;;19.00;75.93
54144;BME280;40050;47.324;18.792;2023-06-10T03:40:16;999.47;;;19.01;75.93
54144;BME280;40050;47.324;18.792;2023-06-10T03:42:17;999.46;;;19.03;76.01
54144;BME280;40050;47.324;18.792;2023-06-10T03:44:18;999.44;;;19.04;75.96
54144;BME280;40050;47.324;18.792;2023-06-10T03:46:19;999.45;;;19.07;76.05
54144;BME280;40050;47.324;18.792;2023-06-10T03:48:20;999.45;;;19.08;76.13
54144;BME280;40050;47.324;18.792;2023-06-10T03:50:21;999.47;;;19.09;76.22
54144;BME280;40050;47.324;18.792;2023-06-10T03:52:22;999.50;;;19.10;76.26
54144;BME280;40050;47.324;18.792;2023-06-10T03:54:23;999.50;;;19.13;76.24
54144;BME280;40050;47.324;18.792;2023-06-10T03:56:23;999.48;;;19.17;76.33
54144;BME280;40050;47.324;18.792;2023-06-10T03:58:24;999.46;;;19.16;76.44
54144;BME280;40050;47.324;18.792;2023-06-10T04:00:25;999.45;;;19.17;76.66
54144;BME280;40050;47.324;18.792;2023-06-10T04:02:26;999.47;;;19.20;76.63
54144;BME280;40050;47.324;18.792;2023-06-10T04:04:27;999.47;;;19.22;76.77
54144;BME280;40050;47.324;18.792;2023-06-10T04:06:28;999.36;;;19.18;76.82
54144;BME280;40050;47.324;18.792;2023-06-10T04:08:29;999.43;;;19.23;76.82
54144;BME280;40050;47.324;18.792;2023-06-10T04:10:30;999.16;;;19.12;76.88
54144;BME280;40050;47.324;18.792;2023-06-10T04:12:31;999.47;;;19.32;76.97
54144;BME280;40050;47.324;18.792;2023-06-10T04:14:32;999.43;;;19.34;77.09
54144;BME280;40050;47.324;18.792;2023-06-10T04:16:33;999.41;;;19.36;77.12
54144;BME280;40050;47.324;18.792;2023-06-10T04:18:34;999.43;;;19.39;77.49
54144;BME280;40050;47.324;18.792;2023-06-10T04:20:35;999.42;;;19.41;77.58
54144;BME280;40050;47.324;18.792;2023-06-10T04:22:36;999.42;;;19.45;77.85
54144;BME280;40050;47.324;18.792;2023-06-10T04:24:37;999.45;;;19.48;78.08
54144;BME280;40050;47.324;18.792;2023-06-10T04:26:38;999.47;;;19.52;78.11
54144;BME280;40050;47.324;18.792;2023-06-10T04:28:38;999.52;;;19.57;78.64
54144;BME280;40050;47.324;18.792;2023-06-10T04:30:39;999.52;;;19.63;79.02
54144;BME280;40050;47.324;18.792;2023-06-10T04:32:41;999.48;;;19.54;79.34
54144;BME280;40050;47.324;18.792;2023-06-10T04:34:41;999.55;;;19.64;79.42
54144;BME280;40050;47.324;18.792;2023-06-10T04:36:42;999.53;;;19.68;79.38
54144;BME280;40050;47.324;18.792;2023-06-10T04:38:43;999.51;;;19.74;79.35
54144;BME280;40050;47.324;18.792;2023-06-10T04:40:44;999.50;;;19.79;79.42
54144;BME280;40050;47.324;18.792;2023-06-10T04:42:45;999.49;;;19.85;79.44
54144;BME280;40050;47.324;18.792;2023-06-10T04:44:46;999.49;;;19.93;79.74
54144;BME280;40050;47.324;18.792;2023-06-10T04:46:47;999.49;;;20.01;79.85
54144;BME280;40050;47.324;18.792;2023-06-10T04:48:48;999.44;;;20.10;79.85
54144;BME280;40050;47.324;18.792;2023-06-10T04:50:49;999.43;;;20.21;79.95
54144;BME280;40050;47.324;18.792;2023-06-10T04:52:50;999.31;;;20.26;80.04
54144;BME280;40050;47.324;18.792;2023-06-10T04:54:51;999.43;;;20.48;80.03
54144;BME280;40050;47.324;18.792;2023-06-10T04:56:52;999.42;;;20.63;79.24
54144;BME280;40050;47.324;18.792;2023-06-10T04:58:53;999.36;;;20.74;79.10
54144;BME280;40050;47.324;18.792;2023-06-10T05:00:54;999.42;;;20.91;78.63
54144;BME280;40050;47.324;18.792;2023-06-10T05:02:55;999.42;;;21.05;78.48
54144;BME280;40050;47.324;18.792;2023-06-10T05:04:56;999.39;;;21.18;78.37
54144;BME280;40050;47.324;18.792;2023-06-10T05:06:56;999.37;;;21.32;78.04
54144;BME280;40050;47.324;18.792;2023-06-10T05:08:57;999.40;;;21.49;77.55
54144;BME280;40050;47.324;18.792;2023-06-10T05:10:58;999.39;;;21.64;76.61
54144;BME280;40050;47.324;18.792;2023-06-10T05:12:59;999.40;;;21.79;75.88
54144;BME280;40050;47.324;18.792;2023-06-10T05:15:00;999.45;;;21.94;75.08
54144;BME280;40050;47.324;18.792;2023-06-10T05:17:01;999.31;;;22.01;74.61
54144;BME280;40050;47.324;18.792;2023-06-10T05:19:02;999.46;;;22.19;74.57
54144;BME280;40050;47.324;18.792;2023-06-10T05:21:03;999.45;;;22.33;74.92
54144;BME280;40050;47.324;18.792;2023-06-10T05:23:04;999.46;;;22.47;74.74
54144;BME280;40050;47.324;18.792;2023-06-10T05:25:05;999.52;;;22.62;74.34
54144;BME280;40050;47.324;18.792;2023-06-10T05:27:06;999.54;;;22.75;72.21
54144;BME280;40050;47.324;18.792;2023-06-10T05:29:07;999.55;;;22.83;71.27
54144;BME280;40050;47.324;18.792;2023-06-10T05:31:08;999.51;;;22.92;71.61
54144;BME280;40050;47.324;18.792;2023-06-10T05:33:09;999.52;;;23.08;71.08
54144;BME280;40050;47.324;18.792;2023-06-10T05:35:11;999.53;;;23.20;70.27
54144;BME280;40050;47.324;18.792;2023-06-10T05:37:12;999.54;;;23.26;69.52
54144;BME280;40050;47.324;18.792;2023-06-10T05:39:13;999.58;;;23.34;69.09
54144;BME280;40050;47.324;18.792;2023-06-10T05:41:14;999.54;;;23.39;68.56
54144;BME280;40050;47.324;18.792;2023-06-10T05:43:15;999.55;;;23.38;67.88
54144;BME280;40050;47.324;18.792;2023-06-10T05:45:16;999.60;;;23.35;67.52
54144;BME280;40050;47.324;18.792;2023-06-10T05:47:17;999.54;;;23.27;67.72
54144;BME280;40050;47.324;18.792;2023-06-10T05:49:18;999.63;;;23.31;67.69
54144;BME280;40050;47.324;18.792;2023-06-10T05:51:19;999.60;;;23.31;67.51
54144;BME280;40050;47.324;18.792;2023-06-10T05:53:20;999.63;;;23.26;68.00
54144;BME280;40050;47.324;18.792;2023-06-10T05:55:21;999.71;;;23.27;69.23
54144;BME280;40050;47.324;18.792;2023-06-10T05:57:22;999.69;;;23.29;69.75
54144;BME280;40050;47.324;18.792;2023-06-10T05:59:23;999.66;;;23.35;69.84
54144;BME280;40050;47.324;18.792;2023-06-10T06:01:31;999.60;;;23.38;69.71
54144;BME280;40050;47.324;18.792;2023-06-10T06:03:32;999.63;;;23.37;70.80
54144;BME280;40050;47.324;18.792;2023-06-10T06:05:33;999.63;;;23.38;69.69
54144;BME280;40050;47.324;18.792;2023-06-10T06:07:33;999.69;;;23.41;69.92
54144;BME280;40050;47.324;18.792;2023-06-10T06:09:35;999.66;;;23.43;69.63
54144;BME280;40050;47.324;18.792;2023-06-10T06:11:36;999.67;;;23.46;69.43
54144;BME280;40050;47.324;18.792;2023-06-10T06:13:37;999.66;;;23.45;69.38
54144;BME280;40050;47.324;18.792;2023-06-10T06:15:38;999.66;;;23.42;69.22
54144;BME280;40050;47.324;18.792;2023-06-10T06:17:39;999.63;;;23.36;68.91
54144;BME280;40050;47.324;18.792;2023-06-10T06:19:40;999.62;;;23.37;68.88
54144;BME280;40050;47.324;18.792;2023-06-10T06:21:41;999.61;;;23.37;69.13
54144;BME280;40050;47.324;18.792;2023-06-10T06:23:42;999.61;;;23.39;69.83
54144;BME280;40050;47.324;18.792;2023-06-10T06:25:42;999.62;;;23.40;69.64
54144;BME280;40050;47.324;18.792;2023-06-10T06:27:46;999.66;;;23.46;69.29
54144;BME280;40050;47.324;18.792;2023-06-10T06:29:47;999.62;;;23.44;68.86
54144;BME280;40050;47.324;18.792;2023-06-10T06:31:48;999.71;;;23.48;69.00
54144;BME280;40050;47.324;18.792;2023-06-10T06:33:49;999.70;;;23.52;69.24
54144;BME280;40050;47.324;18.792;2023-06-10T06:35:50;999.75;;;23.59;68.80
54144;BME280;40050;47.324;18.792;2023-06-10T06:37:53;999.69;;;23.59;67.59
54144;BME280;40050;47.324;18.792;2023-06-10T06:39:54;999.71;;;23.58;67.74
54144;BME280;40050;47.324;18.792;2023-06-10T06:41:55;999.72;;;23.62;67.63
54144;BME280;40050;47.324;18.792;2023-06-10T06:43:56;999.74;;;23.60;67.51
54144;BME280;40050;47.324;18.792;2023-06-10T06:45:57;999.72;;;23.55;66.82
54144;BME280;40050;47.324;18.792;2023-06-10T06:47:58;999.69;;;23.52;66.95
54144;BME280;40050;47.324;18.792;2023-06-10T06:49:59;999.72;;;23.56;67.32
54144;BME280;40050;47.324;18.792;2023-06-10T06:52:00;999.66;;;23.64;66.65
54144;BME280;40050;47.324;18.792;2023-06-10T06:54:01;999.73;;;23.71;66.79
54144;BME280;40050;47.324;18.792;2023-06-10T06:56:01;999.70;;;23.76;66.30
54144;BME280;40050;47.324;18.792;2023-06-10T06:58:02;999.75;;;23.84;65.48
54144;BME280;40050;47.324;18.792;2023-06-10T07:00:04;999.59;;;23.83;65.58
54144;BME280;40050;47.324;18.792;2023-06-10T07:02:05;999.74;;;24.00;66.39
54144;BME280;40050;47.324;18.792;2023-06-10T07:04:06;999.69;;;24.14;66.69
54144;BME280;40050;47.324;18.792;2023-06-10T07:06:07;999.72;;;24.31;66.81
54144;BME280;40050;47.324;18.792;2023-06-10T07:08:08;999.71;;;24.51;65.46
54144;BME280;40050;47.324;18.792;2023-06-10T07:10:09;999.68;;;24.71;63.78
54144;BME280;40050;47.324;18.792;2023-06-10T07:12:10;999.74;;;24.85;62.52
54144;BME280;40050;47.324;18.792;2023-06-10T07:13:28;999.72;;;24.86;63.63
54144;BME280;40050;47.324;18.792;2023-06-10T07:15:29;999.71;;;25.12;60.85
54144;BME280;40050;47.324;18.792;2023-06-10T07:17:30;999.68;;;25.26;60.26
54144;BME280;40050;47.324;18.792;2023-06-10T07:19:31;999.70;;;25.34;60.45
54144;BME280;40050;47.324;18.792;2023-06-10T07:21:32;999.66;;;25.34;59.91
54144;BME280;40050;47.324;18.792;2023-06-10T07:23:33;999.71;;;25.24;59.69
54144;BME280;40050;47.324;18.792;2023-06-10T07:25:34;999.64;;;25.13;60.46
54144;BME280;40050;47.324;18.792;2023-06-10T07:27:35;999.72;;;25.18;60.88
54144;BME280;40050;47.324;18.792;2023-06-10T07:29:36;999.53;;;25.13;61.27
54144;BME280;40050;47.324;18.792;2023-06-10T07:31:37;999.56;;;25.31;61.05
54144;BME280;40050;47.324;18.792;2023-06-10T07:33:38;999.72;;;25.56;59.95
54144;BME280;40050;47.324;18.792;2023-06-10T07:35:39;999.58;;;25.64;60.47
54144;BME280;40050;47.324;18.792;2023-06-10T07:37:40;999.75;;;25.89;58.62
54144;BME280;40050;47.324;18.792;2023-06-10T07:39:41;999.74;;;25.89;57.81
54144;BME280;40050;47.324;18.792;2023-06-10T07:41:42;999.72;;;25.83;57.43
54144;BME280;40050;47.324;18.792;2023-06-10T07:43:43;999.71;;;25.86;57.71
54144;BME280;40050;47.324;18.792;2023-06-10T07:45:43;999.66;;;26.01;57.02
54144;BME280;40050;47.324;18.792;2023-06-10T07:47:45;999.64;;;26.10;58.42
54144;BME280;40050;47.324;18.792;2023-06-10T07:49:45;999.63;;;26.22;58.24
54144;BME280;40050;47.324;18.792;2023-06-10T07:51:46;999.68;;;26.41;57.47
54144;BME280;40050;47.324;18.792;2023-06-10T07:53:47;999.67;;;26.60;57.04
54144;BME280;40050;47.324;18.792;2023-06-10T07:55:48;999.65;;;26.82;56.13
54144;BME280;40050;47.324;18.792;2023-06-10T07:57:49;999.70;;;27.01;55.23
54144;BME280;40050;47.324;18.792;2023-06-10T07:59:50;999.77;;;27.19;55.47
54144;BME280;40050;47.324;18.792;2023-06-10T08:01:51;999.75;;;27.39;54.76
54144;BME280;40050;47.324;18.792;2023-06-10T08:03:52;999.71;;;27.58;54.49
54144;BME280;40050;47.324;18.792;2023-06-10T08:05:53;999.71;;;27.78;52.66
54144;BME280;40050;47.324;18.792;2023-06-10T08:07:55;999.71;;;27.95;53.73
54144;BME280;40050;47.324;18.792;2023-06-10T08:09:59;999.70;;;28.03;51.75
54144;BME280;40050;47.324;18.792;2023-06-10T08:12:00;999.70;;;27.86;51.27
54144;BME280;40050;47.324;18.792;2023-06-10T08:14:01;999.65;;;27.84;51.70
54144;BME280;40050;47.324;18.792;2023-06-10T08:16:02;999.68;;;27.89;53.04
54144;BME280;40050;47.324;18.792;2023-06-10T08:18:03;999.75;;;27.92;53.20
54144;BME280;40050;47.324;18.792;2023-06-10T08:20:04;999.73;;;27.88;52.26
54144;BME280;40050;47.324;18.792;2023-06-10T08:22:05;999.73;;;27.86;51.44
54144;BME280;40050;47.324;18.792;2023-06-10T08:24:06;999.73;;;27.72;51.09
54144;BME280;40050;47.324;18.792;2023-06-10T08:26:08;999.66;;;27.67;51.39
54144;BME280;40050;47.324;18.792;2023-06-10T08:28:09;999.75;;;27.82;51.58
54144;BME280;40050;47.324;18.792;2023-06-10T08:30:10;999.68;;;27.84;50.69
54144;BME280;40050;47.324;18.792;2023-06-10T08:32:11;999.68;;;27.85;52.06
54144;BME280;40050;47.324;18.792;2023-06-10T08:34:12;999.70;;;27.93;51.22
54144;BME280;40050;47.324;18.792;2023-06-10T08:36:13;999.64;;;27.95;51.05
54144;BME280;40050;47.324;18.792;2023-06-10T08:38:14;999.63;;;27.98;50.76
54144;BME280;40050;47.324;18.792;2023-06-10T08:40:15;999.63;;;27.94;50.61
54144;BME280;40050;47.324;18.792;2023-06-10T08:42:21;999.58;;;27.91;50.66
54144;BME280;40050;47.324;18.792;2023-06-10T08:44:26;999.64;;;28.01;50.82
54144;BME280;40050;47.324;18.792;2023-06-10T08:46:29;999.61;;;28.05;51.40
54144;BME280;40050;47.324;18.792;2023-06-10T08:48:32;999.59;;;28.15;51.08
54144;BME280;40050;47.324;18.792;2023-06-10T08:50:35;999.55;;;28.22;50.68
54144;BME280;40050;47.324;18.792;2023-06-10T08:52:36;999.53;;;28.11;50.68
54144;BME280;40050;47.324;18.792;2023-06-10T08:54:38;999.50;;;28.23;50.76
54144;BME280;40050;47.324;18.792;2023-06-10T08:56:39;999.47;;;28.35;49.11
54144;BME280;40050;47.324;18.792;2023-06-10T08:58:40;999.44;;;28.50;49.27
54144;BME280;40050;47.324;18.792;2023-06-10T09:00:41;999.45;;;28.58;49.24
54144;BME280;40050;47.324;18.792;2023-06-10T09:02:43;999.45;;;28.57;48.85
54144;BME280;40050;47.324;18.792;2023-06-10T09:04:44;999.46;;;28.71;49.29
54144;BME280;40050;47.324;18.792;2023-06-10T09:06:46;999.53;;;28.83;48.99
54144;BME280;40050;47.324;18.792;2023-06-10T09:08:47;999.48;;;28.82;47.82
54144;BME280;40050;47.324;18.792;2023-06-10T09:10:48;999.46;;;28.76;47.50
54144;BME280;40050;47.324;18.792;2023-06-10T09:12:52;999.42;;;28.61;47.18
54144;BME280;40050;47.324;18.792;2023-06-10T09:14:53;999.50;;;28.49;48.30
54144;BME280;40050;47.324;18.792;2023-06-10T09:16:54;999.45;;;28.39;48.42
54144;BME280;40050;47.324;18.792;2023-06-10T09:18:55;999.42;;;28.31;48.34
54144;BME280;40050;47.324;18.792;2023-06-10T09:20:56;999.42;;;28.17;48.66
54144;BME280;40050;47.324;18.792;2023-06-10T09:22:57;999.40;;;28.08;47.99
54144;BME280;40050;47.324;18.792;2023-06-10T09:25:06;999.47;;;27.94;49.21
54144;BME280;40050;47.324;18.792;2023-06-10T09:27:08;999.46;;;27.89;49.34
54144;BME280;40050;47.324;18.792;2023-06-10T09:29:09;999.45;;;27.89;50.04
54144;BME280;40050;47.324;18.792;2023-06-10T09:31:11;999.44;;;27.92;49.11
54144;BME280;40050;47.324;18.792;2023-06-10T09:33:13;999.42;;;27.86;48.64
54144;BME280;40050;47.324;18.792;2023-06-10T09:35:14;999.46;;;27.83;48.10
54144;BME280;40050;47.324;18.792;2023-06-10T09:37:22;999.46;;;27.77;49.13
54144;BME280;40050;47.324;18.792;2023-06-10T09:39:23;999.45;;;27.66;50.06
54144;BME280;40050;47.324;18.792;2023-06-10T09:41:39;999.43;;;27.56;50.95
54144;BME280;40050;47.324;18.792;2023-06-10T09:43:41;999.42;;;27.46;51.83
54144;BME280;40050;47.324;18.792;2023-06-10T09:45:42;999.42;;;27.41;52.44
54144;BME280;40050;47.324;18.792;2023-06-10T09:47:45;999.47;;;27.36;52.84
54144;BME280;40050;47.324;18.792;2023-06-10T09:49:46;999.49;;;27.33;53.44
54144;BME280;40050;47.324;18.792;2023-06-10T09:51:56;999.49;;;27.26;53.40
54144;BME280;40050;47.324;18.792;2023-06-10T09:53:57;999.49;;;27.21;53.78
54144;BME280;40050;47.324;18.792;2023-06-10T09:55:59;999.50;;;27.18;53.81
54144;BME280;40050;47.324;18.792;2023-06-10T09:58:00;999.51;;;27.08;54.00
54144;BME280;40050;47.324;18.792;2023-06-10T10:00:10;999.44;;;26.98;54.83
54144;BME280;40050;47.324;18.792;2023-06-10T10:02:15;999.48;;;26.99;54.83
54144;BME280;40050;47.324;18.792;2023-06-10T10:04:22;999.46;;;26.97;54.64
54144;BME280;40050;47.324;18.792;2023-06-10T10:06:23;999.43;;;26.93;54.84
54144;BME280;40050;47.324;18.792;2023-06-10T10:08:24;999.48;;;26.98;55.18
54144;BME280;40050;47.324;18.792;2023-06-10T10:10:25;999.43;;;27.04;54.75
54144;BME280;40050;47.324;18.792;2023-06-10T10:12:26;999.40;;;27.03;54.40
54144;BME280;40050;47.324;18.792;2023-06-10T10:14:28;999.43;;;27.08;55.11
54144;BME280;40050;47.324;18.792;2023-06-10T10:16:39;999.41;;;27.04;55.20
54144;BME280;40050;47.324;18.792;2023-06-10T10:18:41;999.42;;;27.01;55.20
54144;BME280;40050;47.324;18.792;2023-06-10T10:20:46;999.39;;;26.98;55.51
54144;BME280;40050;47.324;18.792;2023-06-10T10:22:53;999.39;;;26.96;55.43
54144;BME280;40050;47.324;18.792;2023-06-10T10:24:57;999.41;;;26.93;55.04
54144;BME280;40050;47.324;18.792;2023-06-10T10:26:59;999.36;;;26.88;55.29
54144;BME280;40050;47.324;18.792;2023-06-10T10:29:16;999.36;;;26.87;55.84
54144;BME280;40050;47.324;18.792;2023-06-10T10:31:21;999.30;;;26.80;56.14
54144;BME280;40050;47.324;18.792;2023-06-10T10:33:23;999.27;;;26.74;56.53
54144;BME280;40050;47.324;18.792;2023-06-10T10:35:27;999.29;;;26.74;56.53
54144;BME280;40050;47.324;18.792;2023-06-10T10:37:28;999.29;;;26.75;56.61
54144;BME280;40050;47.324;18.792;2023-06-10T10:39:29;999.28;;;26.77;56.50
54144;BME280;40050;47.324;18.792;2023-06-10T10:41:31;999.24;;;26.78;55.80
54144;BME280;40050;47.324;18.792;2023-06-10T10:43:33;999.14;;;26.70;55.92
54144;BME280;40050;47.324;18.792;2023-06-10T10:45:34;999.21;;;26.70;56.28
54144;BME280;40050;47.324;18.792;2023-06-10T10:47:36;999.17;;;26.75;56.55
54144;BME280;40050;47.324;18.792;2023-06-10T10:49:37;999.16;;;26.78;56.63
54144;BME280;40050;47.324;18.792;2023-06-10T10:51:39;999.09;;;26.83;56.75
54144;BME280;40050;47.324;18.792;2023-06-10T10:54:13;999.13;;;26.88;56.79